Time;durP1;ratioP1;P1;durP2;ratioP2;P2;SDS_P1;SDS_P2;PMS_P1;PMS_P2;Temp;Humidity;BMP_temperature;BMP_pressure;BME280_temperature;BME280_humidity;BME280_pressure;Samples;Min_cycle;Max_cycle;Signal;HPM_P1;HPM_P2
2022/03/09 00:00:25;;;;;;;6.78;4.25;;;;;;;7.79;34.81;100493.63;5113186;28;20094;-62
2022/03/09 00:02:52;;;;;;;7.32;4.47;;;;;;;7.77;34.81;100496.31;5113150;28;20069;-62
2022/03/09 00:05:19;;;;;;;8.48;4.78;;;;;;;7.77;34.93;100495.44;5113161;28;20058;-61
2022/03/09 00:07:45;;;;;;;6.13;4.22;;;;;;;7.76;34.77;100504.22;5113368;28;20052;-62
2022/03/09 00:10:12;;;;;;;6.55;4.00;;;;;;;7.74;35.04;100498.19;5112697;28;20079;-61
2022/03/09 00:12:38;;;;;;;7.15;4.47;;;;;;;7.73;35.12;100499.94;5113184;28;20093;-61
2022/03/09 00:15:05;;;;;;;6.55;4.32;;;;;;;7.71;34.86;100501.75;5113166;28;20040;-59
2022/03/09 00:17:32;;;;;;;6.10;4.35;;;;;;;7.69;35.03;100498.31;5112990;28;20060;-61
2022/03/09 00:19:59;;;;;;;7.47;4.63;;;;;;;7.66;34.88;100498.41;5112888;28;20052;-61
2022/03/09 00:22:27;;;;;;;6.10;3.95;;;;;;;7.63;35.08;100499.38;5111734;28;20052;-63
2022/03/09 00:24:53;;;;;;;7.45;4.63;;;;;;;7.60;35.26;100496.88;5112726;28;20047;-62
2022/03/09 00:27:20;;;;;;;5.97;4.30;;;;;;;7.59;35.18;100496.91;5091147;28;20443;-61
2022/03/09 00:29:46;;;;;;;6.38;4.28;;;;;;;7.56;35.53;100497.88;5092079;28;20353;-62
2022/03/09 00:32:13;;;;;;;7.05;4.43;;;;;;;7.54;35.14;100507.53;5092233;28;20048;-61
2022/03/09 00:34:40;;;;;;;6.32;4.60;;;;;;;7.51;35.36;100511.13;5103275;28;20055;-61
2022/03/09 00:37:07;;;;;;;8.05;4.40;;;;;;;7.51;35.17;100515.53;5112711;28;20113;-62
2022/03/09 00:39:33;;;;;;;6.78;4.50;;;;;;;7.49;35.57;100506.84;5112637;28;20048;-61
2022/03/09 00:42:00;;;;;;;6.68;4.10;;;;;;;7.46;35.54;100504.31;5112003;28;20051;-62
2022/03/09 00:44:26;;;;;;;8.02;4.63;;;;;;;7.43;35.78;100505.25;5112746;28;20100;-61
2022/03/09 00:46:53;;;;;;;5.95;4.15;;;;;;;7.42;35.49;100506.19;5112390;28;20048;-62
2022/03/09 00:49:20;;;;;;;10.80;4.50;;;;;;;7.40;35.63;100500.97;5112528;28;20085;-61
2022/03/09 00:51:46;;;;;;;6.85;4.03;;;;;;;7.38;35.61;100500.19;5112496;28;20043;-62
2022/03/09 00:54:13;;;;;;;10.02;4.65;;;;;;;7.38;35.84;100505.44;5112796;28;20486;-62
2022/03/09 00:56:40;;;;;;;5.57;3.88;;;;;;;7.38;35.66;100515.03;5112620;28;20109;-61
2022/03/09 00:59:06;;;;;;;6.47;4.40;;;;;;;7.37;35.64;100521.19;5111610;28;20496;-65
2022/03/09 01:01:33;;;;;;;6.22;4.07;;;;;;;7.36;35.67;100522.09;5112141;28;20051;-62
2022/03/09 01:04:00;;;;;;;7.93;4.30;;;;;;;7.34;35.62;100519.53;5112031;28;20040;-60
2022/03/09 01:06:27;;;;;;;6.85;4.38;;;;;;;7.34;35.52;100514.28;5111939;28;20401;-61
2022/03/09 01:08:54;;;;;;;6.93;4.22;;;;;;;7.33;36.06;100511.72;5110798;28;20048;-62
2022/03/09 01:11:21;;;;;;;8.18;4.90;;;;;;;7.33;36.13;100515.16;5111876;28;20167;-62
2022/03/09 01:13:47;;;;;;;6.68;4.35;;;;;;;7.31;35.78;100517.00;5111812;28;20044;-61
2022/03/09 01:16:14;;;;;;;6.32;4.22;;;;;;;7.29;36.06;100511.78;5111846;28;20176;-62
2022/03/09 01:18:43;;;;;;;7.05;4.50;;;;;;;7.27;35.83;100525.84;5111808;28;20048;-61
2022/03/09 01:21:10;;;;;;;5.70;4.35;;;;;;;7.26;35.81;100521.53;5111823;28;20120;-62
2022/03/09 01:23:36;;;;;;;8.27;5.13;;;;;;;7.23;35.86;100519.00;5111809;28;20404;-61
2022/03/09 01:26:03;;;;;;;6.63;4.25;;;;;;;7.21;35.83;100519.03;5110394;28;20051;-62
2022/03/09 01:28:30;;;;;;;6.95;4.88;;;;;;;7.20;36.02;100505.97;5111705;28;20055;-63
2022/03/09 01:30:57;;;;;;;6.15;4.18;;;;;;;7.18;36.20;100508.66;5111484;28;20556;-63
2022/03/09 01:33:23;;;;;;;6.13;4.22;;;;;;;7.16;35.97;100513.09;5111717;28;20108;-61
2022/03/09 01:35:50;;;;;;;6.82;4.45;;;;;;;7.15;35.98;100514.00;5111492;28;20500;-63
2022/03/09 01:38:16;;;;;;;7.68;4.53;;;;;;;7.14;36.17;100520.97;5111606;28;20047;-61
2022/03/09 01:40:43;;;;;;;9.70;4.20;;;;;;;7.12;36.13;100521.94;5111241;28;20047;-61
2022/03/09 01:43:09;;;;;;;8.02;4.60;;;;;;;7.11;36.36;100523.69;5111388;28;20043;-63
2022/03/09 01:45:36;;;;;;;9.35;4.55;;;;;;;7.09;36.57;100509.78;5111541;28;20120;-62
2022/03/09 01:48:03;;;;;;;7.00;4.78;;;;;;;7.09;36.54;100511.53;5111605;28;20047;-61
2022/03/09 01:50:29;;;;;;;10.25;5.13;;;;;;;7.06;36.32;100502.03;5110925;28;20497;-63
2022/03/09 01:52:56;;;;;;;9.00;4.38;;;;;;;7.04;36.48;100506.47;5111215;28;20112;-62
2022/03/09 01:55:22;;;;;;;7.82;4.85;;;;;;;7.00;36.47;100499.59;5111216;28;20051;-61
2022/03/09 01:57:49;;;;;;;7.20;4.97;;;;;;;6.99;36.35;100508.38;5110648;28;20100;-61
2022/03/09 02:00:17;;;;;;;6.63;4.57;;;;;;;6.97;36.47;100504.94;5111065;28;20492;-62
2022/03/09 02:02:44;;;;;;;6.47;4.28;;;;;;;6.96;36.45;100498.84;5110557;28;20339;-62
2022/03/09 02:05:11;;;;;;;7.30;4.78;;;;;;;6.96;36.47;100503.22;5111300;28;20065;-62
2022/03/09 02:10:23;;;;;;;6.57;4.43;;;;;;;6.96;36.93;100500.59;5111139;28;20487;-62
2022/03/09 02:12:50;;;;;;;6.90;4.20;;;;;;;6.96;36.49;100492.75;5110958;28;20056;-61
2022/03/09 02:15:17;;;;;;;5.95;4.10;;;;;;;6.95;36.93;100498.91;5111173;28;20093;-61
2022/03/09 02:17:43;;;;;;;6.80;4.38;;;;;;;6.94;36.82;100492.78;5110867;28;20104;-62
2022/03/09 02:20:10;;;;;;;7.20;5.28;;;;;;;6.93;36.43;100496.31;5111330;28;20044;-62
2022/03/09 02:22:39;;;;;;;9.23;5.00;;;;;;;6.93;36.83;100492.84;5110640;28;20044;-61
2022/03/09 02:25:11;;;;;;;6.07;4.32;;;;;;;6.92;36.65;100492.00;5111053;28;20039;-61
2022/03/09 02:27:39;;;;;;;5.68;4.05;;;;;;;6.94;36.68;100489.31;5111072;28;20422;-62
2022/03/09 02:30:07;;;;;;;6.30;4.03;;;;;;;6.93;36.56;100492.84;5109563;28;20092;-61
2022/03/09 02:32:41;;;;;;;6.70;4.55;;;;;;;6.89;37.11;100494.69;5110777;28;20152;-64
2022/03/09 02:35:08;;;;;;;;;;;;;;;6.90;36.64;100494.66;5110647;28;20470;-61
2022/03/09 02:37:34;;;;;;;6.70;3.83;;;;;;;6.94;36.17;100494.53;5111194;28;19928;-62
2022/03/09 02:40:01;;;;;;;6.28;4.47;;;;;;;6.90;36.33;100489.41;5110907;28;20119;-62
2022/03/09 02:42:28;;;;;;;8.50;4.40;;;;;;;6.88;36.51;100485.97;5110850;28;20070;-61
2022/03/09 02:44:54;;;;;;;6.43;4.68;;;;;;;6.86;36.83;100486.94;5110573;28;20101;-64
2022/03/09 02:47:21;;;;;;;7.38;4.50;;;;;;;6.83;36.70;100490.50;5110669;28;20488;-62
2022/03/09 02:49:47;;;;;;;7.63;4.95;;;;;;;6.81;36.92;100488.81;5109905;28;20078;-62
2022/03/09 02:52:15;;;;;;;7.00;4.72;;;;;;;6.78;37.02;100490.63;5110598;28;20160;-63
2022/03/09 02:54:42;;;;;;;9.48;4.57;;;;;;;6.76;36.62;100495.06;5109430;28;20044;-62
2022/03/09 02:57:09;;;;;;;7.75;4.65;;;;;;;6.74;36.65;100496.00;5110681;28;20483;-62
2022/03/09 02:59:35;;;;;;;6.57;4.40;;;;;;;6.73;36.71;100497.75;5110522;28;20083;-62
2022/03/09 03:02:03;;;;;;;6.88;4.82;;;;;;;6.71;36.78;100496.09;5110826;28;20441;-62
2022/03/09 03:04:29;;;;;;;6.38;4.28;;;;;;;6.71;36.97;100493.47;5110437;28;20099;-62
2022/03/09 03:06:56;;;;;;;6.72;4.43;;;;;;;6.69;36.58;100493.50;5110520;28;20055;-62
2022/03/09 03:09:23;;;;;;;15.25;4.75;;;;;;;6.67;36.72;100489.22;5112271;28;20108;-61
2022/03/09 03:11:49;;;;;;;8.38;5.30;;;;;;;6.67;37.04;100492.72;5114264;28;20100;-62
2022/03/09 03:14:16;;;;;;;10.07;5.07;;;;;;;6.65;36.78;100494.50;5114688;28;20156;-61
2022/03/09 03:16:45;;;;;;;7.50;4.50;;;;;;;6.64;36.90;100492.78;5112888;28;20514;-63
2022/03/09 03:19:12;;;;;;;9.15;4.70;;;;;;;6.62;37.48;100492.81;5112895;28;20077;-61
2022/03/09 03:21:38;;;;;;;7.55;4.63;;;;;;;6.61;37.22;100498.09;5114302;28;20039;-62
2022/03/09 03:24:05;;;;;;;8.40;4.53;;;;;;;6.58;37.48;100485.97;5114141;28;20096;-61
2022/03/09 03:26:31;;;;;;;7.75;4.38;;;;;;;6.57;37.24;100496.47;5114176;28;20097;-62
2022/03/09 03:28:58;;;;;;;7.32;4.72;;;;;;;6.54;37.39;100505.25;5113790;28;20044;-62
2022/03/09 03:31:25;;;;;;;6.45;4.40;;;;;;;6.52;37.07;100501.84;5113590;28;20055;-62
2022/03/09 03:33:52;;;;;;;6.38;4.15;;;;;;;6.49;37.34;100505.41;5114152;28;20109;-62
2022/03/09 03:36:18;;;;;;;8.43;4.57;;;;;;;6.47;37.55;100501.97;5113981;28;20086;-61
2022/03/09 03:38:45;;;;;;;7.78;5.10;;;;;;;6.47;37.55;100501.13;5113801;28;20101;-61
2022/03/09 03:41:12;;;;;;;6.97;4.30;;;;;;;6.46;37.52;100502.00;5113742;28;20089;-61
2022/03/09 03:43:38;;;;;;;7.05;4.75;;;;;;;6.45;37.05;100508.13;5113399;28;20069;-62
2022/03/09 03:46:05;;;;;;;7.72;4.82;;;;;;;6.44;37.33;100503.81;5113695;28;20116;-61
2022/03/09 03:48:32;;;;;;;5.95;4.18;;;;;;;6.43;37.31;100505.56;5113631;28;20547;-62
2022/03/09 03:50:58;;;;;;;6.32;4.50;;;;;;;6.43;37.32;100500.34;5113510;28;20403;-61
2022/03/09 03:53:25;;;;;;;6.00;4.20;;;;;;;6.44;37.74;100501.19;5113430;28;20083;-61
2022/03/09 03:55:52;;;;;;;6.72;4.60;;;;;;;6.43;37.53;100494.25;5113594;28;20043;-62
2022/03/09 03:58:19;;;;;;;6.80;4.70;;;;;;;6.43;37.77;100496.88;5112479;28;20104;-62
2022/03/09 04:00:45;;;;;;;6.22;4.43;;;;;;;6.42;37.51;100487.31;5112785;28;20100;-62
2022/03/09 04:03:12;;;;;;;7.43;4.38;;;;;;;6.42;37.55;100495.16;5113549;28;20055;-63
2022/03/09 04:05:39;;;;;;;8.48;4.70;;;;;;;6.41;37.33;100482.97;5113462;28;20452;-62
2022/03/09 04:08:05;;;;;;;6.63;4.25;;;;;;;6.40;37.36;100492.59;5113375;28;20056;-61
2022/03/09 04:10:32;;;;;;;8.93;4.10;;;;;;;6.38;37.32;100487.41;5113077;28;20047;-61
2022/03/09 04:13:03;;;;;;;6.47;4.30;;;;;;;6.38;37.29;100486.53;5112941;28;20403;-61
2022/03/09 04:15:34;;;;;;;7.70;4.13;;;;;;;6.35;37.42;100490.09;5113245;28;20105;-61
2022/03/09 04:18:03;;;;;;;11.20;5.00;;;;;;;6.37;37.33;100497.91;5091573;28;20052;-61
2022/03/09 04:20:30;;;;;;;6.25;4.45;;;;;;;6.36;37.19;100504.88;5091726;28;20097;-61
2022/03/09 04:22:56;;;;;;;7.80;4.18;;;;;;;6.35;37.29;100495.31;5093058;28;20109;-63
2022/03/09 04:25:23;;;;;;;6.90;4.05;;;;;;;6.37;37.38;100495.28;5092474;28;20633;-62
2022/03/09 04:27:49;;;;;;;5.60;4.22;;;;;;;6.36;37.20;100494.41;5092292;28;20056;-62
2022/03/09 04:30:16;;;;;;;8.13;4.07;;;;;;;6.37;37.27;100496.16;5092364;28;20478;-62
2022/03/09 04:32:43;;;;;;;8.82;4.00;;;;;;;6.37;37.29;100490.06;5101343;28;20373;-64
2022/03/09 04:35:10;;;;;;;6.65;4.15;;;;;;;6.36;37.20;100486.56;5112710;28;20456;-63
2022/03/09 04:37:36;;;;;;;7.78;3.90;;;;;;;6.35;37.20;100497.94;5111461;28;20051;-62
2022/03/09 04:40:04;;;;;;;5.65;3.95;;;;;;;6.35;37.36;100494.44;5112374;28;20064;-63
2022/03/09 04:42:31;;;;;;;5.65;3.78;;;;;;;6.35;37.31;100497.06;5112740;28;20051;-62
2022/03/09 04:44:58;;;;;;;8.70;3.83;;;;;;;6.36;37.13;100498.81;5112626;28;20101;-62
2022/03/09 04:47:24;;;;;;;6.80;4.28;;;;;;;6.37;37.34;100508.34;5112480;28;20069;-61
2022/03/09 04:49:51;;;;;;;8.43;4.22;;;;;;;6.36;37.16;100510.09;5112007;28;20416;-63
2022/03/09 04:52:18;;;;;;;5.10;3.92;;;;;;;6.37;36.98;100511.84;5112390;28;20043;-61
2022/03/09 04:54:46;;;;;;;6.60;4.05;;;;;;;6.38;36.97;100507.44;5112396;28;20048;-62
2022/03/09 04:57:13;;;;;;;6.57;3.95;;;;;;;6.37;37.15;100498.75;5111231;28;20051;-62
2022/03/09 04:59:39;;;;;;;6.47;4.45;;;;;;;6.38;36.98;100499.59;5112216;28;20093;-61
2022/03/09 05:02:06;;;;;;;5.78;3.88;;;;;;;6.38;36.85;100500.47;5112199;28;20495;-61
2022/03/09 05:04:33;;;;;;;8.57;4.18;;;;;;;6.37;37.02;100501.38;5111932;28;20093;-61
2022/03/09 05:07:00;;;;;;;8.50;4.15;;;;;;;6.37;36.93;100505.75;5110777;28;20100;-62
2022/03/09 05:09:26;;;;;;;6.47;4.15;;;;;;;6.35;36.98;100497.94;5112253;28;20073;-62
2022/03/09 05:11:53;;;;;;;7.18;4.22;;;;;;;6.36;37.16;100504.03;5110767;28;20108;-62
2022/03/09 05:14:20;;;;;;;6.78;4.10;;;;;;;6.35;36.81;100497.94;5111605;28;20549;-64
2022/03/09 05:16:46;;;;;;;9.23;4.45;;;;;;;6.34;37.00;100501.47;5111789;28;20092;-63
2022/03/09 05:19:13;;;;;;;6.78;4.03;;;;;;;6.31;36.78;100504.16;5112203;28;20056;-62
2022/03/09 05:21:40;;;;;;;9.10;4.25;;;;;;;6.30;36.90;100510.28;5111845;28;20044;-63
2022/03/09 05:24:21;;;;;;;5.30;3.65;;;;;;;6.28;37.00;100504.22;5111974;28;20413;-61
2022/03/09 05:26:47;;;;;;;8.20;4.53;;;;;;;6.25;36.80;100510.41;5111789;28;20393;-61
2022/03/09 05:29:14;;;;;;;6.40;4.20;;;;;;;6.23;37.20;100516.56;5110506;28;20535;-60
2022/03/09 05:31:44;;;;;;;6.82;3.80;;;;;;;6.20;36.74;100524.50;5110677;28;20480;-61
2022/03/09 05:34:12;;;;;;;6.55;4.30;;;;;;;6.17;36.80;100521.97;5110639;28;20631;-61
2022/03/09 05:36:39;;;;;;;9.77;4.20;;;;;;;6.13;36.83;100522.03;5111264;28;20081;-63
2022/03/09 05:39:06;;;;;;;8.50;4.47;;;;;;;6.11;36.77;100528.22;5110352;28;20101;-61
2022/03/09 05:41:33;;;;;;;8.23;4.35;;;;;;;6.07;37.04;100518.72;5111300;28;20048;-61
2022/03/09 05:44:00;;;;;;;8.35;4.30;;;;;;;6.04;36.87;100532.75;5109766;28;20487;-61
2022/03/09 05:46:27;;;;;;;9.00;4.53;;;;;;;6.00;36.87;100528.44;5111359;28;20054;-62
2022/03/09 05:48:54;;;;;;;5.90;4.35;;;;;;;5.97;37.09;100533.75;5111139;28;20083;-61
2022/03/09 05:51:20;;;;;;;8.52;4.10;;;;;;;5.95;37.21;100525.09;5111242;28;20051;-61
2022/03/09 05:53:47;;;;;;;12.20;4.60;;;;;;;5.92;37.10;100525.16;5111292;28;20081;-62
2022/03/09 05:56:13;;;;;;;6.93;4.43;;;;;;;5.91;37.22;100531.31;5111626;28;20043;-61
2022/03/09 05:58:40;;;;;;;8.32;5.05;;;;;;;5.89;37.42;100531.34;5111132;28;20048;-62
2022/03/09 06:01:06;;;;;;;9.70;5.03;;;;;;;5.87;37.38;100535.75;5110684;28;20043;-61
2022/03/09 06:03:33;;;;;;;8.63;4.95;;;;;;;5.84;37.25;100536.66;5110977;28;20439;-62
2022/03/09 06:06:00;;;;;;;10.32;5.60;;;;;;;5.84;37.43;100539.28;5111249;28;20059;-62
2022/03/09 06:08:27;;;;;;;9.13;5.05;;;;;;;5.82;37.69;100541.09;5111219;28;20064;-63
2022/03/09 06:10:54;;;;;;;10.68;5.43;;;;;;;5.80;37.58;100537.63;5110885;28;20476;-61
2022/03/09 06:13:20;;;;;;;8.02;5.00;;;;;;;5.79;37.85;100537.69;5110818;28;20136;-62
2022/03/09 06:15:49;;;;;;;10.18;4.82;;;;;;;5.77;37.71;100534.25;5110667;28;20555;-62
2022/03/09 06:18:16;;;;;;;8.88;4.70;;;;;;;5.75;37.62;100534.28;5110952;28;20449;-61
2022/03/09 06:20:42;;;;;;;10.93;4.68;;;;;;;5.75;37.93;100529.06;5110640;28;20051;-61
2022/03/09 06:23:13;;;;;;;10.75;4.82;;;;;;;5.75;38.03;100531.66;5110625;28;20050;-61
2022/03/09 06:25:39;;;;;;;9.95;5.40;;;;;;;5.75;38.11;100534.28;5110426;28;20047;-62
2022/03/09 06:28:06;;;;;;;7.75;5.07;;;;;;;5.76;38.04;100537.75;5110709;28;20490;-62
2022/03/09 06:30:32;;;;;;;13.98;5.47;;;;;;;5.76;37.95;100538.63;5110238;28;20044;-62
2022/03/09 06:32:59;;;;;;;10.90;5.80;;;;;;;5.77;38.25;100536.84;5110653;28;20096;-62
2022/03/09 06:35:26;;;;;;;10.63;6.25;;;;;;;5.79;38.15;100543.75;5110664;28;20073;-62
2022/03/09 06:37:56;;;;;;;8.43;5.85;;;;;;;5.81;38.33;100544.59;5110798;28;20058;-64
2022/03/09 06:40:23;;;;;;;8.48;5.15;;;;;;;5.82;38.38;100543.69;5110566;28;20540;-62
2022/03/09 06:42:49;;;;;;;9.13;5.57;;;;;;;5.85;38.09;100545.38;5111022;28;20123;-62
2022/03/09 06:45:22;;;;;;;7.90;5.47;;;;;;;5.89;38.31;100553.97;5114542;28;20518;-63
2022/03/09 06:47:49;;;;;;;8.10;5.20;;;;;;;5.92;38.46;100556.53;5114309;28;20131;-62
2022/03/09 06:50:15;;;;;;;10.20;4.78;;;;;;;5.94;38.29;100552.16;5114647;28;20058;-61
2022/03/09 06:52:42;;;;;;;10.20;5.35;;;;;;;5.98;38.05;100553.78;5114859;28;20050;-62
2022/03/09 06:55:12;;;;;;;11.98;5.30;;;;;;;6.03;38.15;100559.78;5114620;28;20105;-62
2022/03/09 06:57:39;;;;;;;7.95;5.13;;;;;;;6.06;38.04;100556.22;5114019;28;20051;-63
2022/03/09 07:00:09;;;;;;;10.30;5.10;;;;;;;6.08;38.38;100549.19;5112884;28;20040;-63
2022/03/09 07:02:35;;;;;;;6.47;4.70;;;;;;;6.13;38.31;100550.78;5113192;28;20048;-62
2022/03/09 07:05:02;;;;;;;7.53;4.43;;;;;;;6.18;38.41;100549.81;5114745;28;20090;-64
2022/03/09 07:07:29;;;;;;;7.22;4.55;;;;;;;6.22;38.31;100560.16;5114564;28;20051;-63
2022/03/09 07:09:56;;;;;;;7.72;4.78;;;;;;;6.25;38.23;100551.38;5114017;28;20093;-61
2022/03/09 07:12:22;;;;;;;7.80;5.40;;;;;;;6.30;38.17;100557.34;5112641;28;20094;-62
2022/03/09 07:14:49;;;;;;;10.45;4.75;;;;;;;6.34;38.25;100556.38;5114305;28;20121;-62
2022/03/09 07:17:16;;;;;;;8.57;4.50;;;;;;;6.39;37.83;100554.47;5114680;28;20048;-62
2022/03/09 07:19:43;;;;;;;7.88;4.32;;;;;;;6.44;38.19;100558.72;5112887;28;20048;-62
2022/03/09 07:22:10;;;;;;;8.25;4.97;;;;;;;6.49;38.19;100559.47;5114655;28;20454;-62
2022/03/09 07:24:36;;;;;;;9.93;4.78;;;;;;;6.54;37.98;100560.19;5114165;28;20055;-63
2022/03/09 07:27:03;;;;;;;8.88;4.60;;;;;;;6.59;38.44;100563.56;5113960;28;20184;-62
2022/03/09 07:29:30;;;;;;;9.18;4.60;;;;;;;6.64;38.03;100560.81;5114160;28;20051;-61
2022/03/09 07:31:57;;;;;;;8.80;4.72;;;;;;;6.69;37.99;100566.75;5113717;28;20043;-62
2022/03/09 07:34:26;;;;;;;8.50;4.53;;;;;;;6.75;37.83;100565.75;5113636;28;20043;-63
2022/03/09 07:36:58;;;;;;;7.38;4.40;;;;;;;6.81;37.79;100570.81;5112943;28;20051;-62
2022/03/09 07:39:29;;;;;;;9.77;4.15;;;;;;;6.86;37.65;100578.53;5113911;27;20070;-61
2022/03/09 07:41:59;;;;;;;8.38;4.65;;;;;;;6.93;37.60;100576.59;5113133;28;20441;-62
2022/03/09 07:44:26;;;;;;;8.35;4.20;;;;;;;6.99;37.59;100577.25;5113750;28;20409;-62
2022/03/09 07:46:53;;;;;;;6.47;4.20;;;;;;;7.04;37.31;100582.38;5113621;28;20054;-61
2022/03/09 07:49:20;;;;;;;7.60;4.07;;;;;;;7.11;37.15;100583.91;5112812;28;20051;-62
2022/03/09 07:51:47;;;;;;;6.50;4.13;;;;;;;7.17;37.41;100591.59;5112004;28;20103;-64
2022/03/09 07:54:14;;;;;;;7.80;4.57;;;;;;;7.22;37.43;100586.19;5112086;28;20075;-63
2022/03/09 07:56:41;;;;;;;7.55;4.47;;;;;;;7.28;37.40;100588.66;5111649;28;20484;-64
2022/03/09 07:59:08;;;;;;;8.38;4.45;;;;;;;7.34;37.38;100595.47;5112973;28;20499;-62
2022/03/09 08:01:35;;;;;;;6.55;4.25;;;;;;;7.39;37.38;100590.94;5111994;28;20050;-62
2022/03/09 08:04:01;;;;;;;8.10;4.38;;;;;;;7.46;37.47;100590.75;5113660;28;20043;-62
2022/03/09 08:06:28;;;;;;;6.30;3.97;;;;;;;7.50;37.40;100587.13;5113405;28;20043;-63
2022/03/09 08:08:55;;;;;;;6.60;4.25;;;;;;;7.55;37.29;100587.84;5113314;28;20059;-62
2022/03/09 08:11:22;;;;;;;12.68;4.10;;;;;;;7.60;37.19;100585.09;5112766;28;20082;-63
2022/03/09 08:13:49;;;;;;;7.88;4.28;;;;;;;7.66;37.11;100590.13;5113593;28;20125;-62
2022/03/09 08:16:15;;;;;;;7.47;4.88;;;;;;;7.72;36.81;100591.72;5113582;28;20087;-63
2022/03/09 08:18:42;;;;;;;6.57;4.05;;;;;;;7.78;37.05;100587.13;5113586;28;20108;-62
2022/03/09 08:21:09;;;;;;;7.93;4.63;;;;;;;7.86;36.90;100596.50;5112846;28;20044;-61
2022/03/09 08:23:35;;;;;;;6.75;4.32;;;;;;;7.92;37.02;100598.94;5112732;28;20047;-61
2022/03/09 08:26:02;;;;;;;6.20;4.28;;;;;;;7.99;36.70;100599.63;5113180;28;20044;-62
2022/03/09 08:28:30;;;;;;;8.27;4.18;;;;;;;8.05;36.88;100599.41;5112603;28;20047;-60
2022/03/09 08:30:56;;;;;;;10.20;4.38;;;;;;;8.12;36.55;100603.53;5112401;28;20391;-62
2022/03/09 08:33:23;;;;;;;6.13;4.32;;;;;;;8.18;36.40;100602.47;5111968;28;20070;-62
2022/03/09 08:35:49;;;;;;;5.95;4.10;;;;;;;8.24;36.68;100593.53;5112394;28;20048;-62
2022/03/09 08:38:16;;;;;;;6.53;4.40;;;;;;;8.30;36.26;100595.97;5111305;28;20049;-64
2022/03/09 08:40:43;;;;;;;8.77;4.80;;;;;;;8.35;36.45;100596.66;5112046;28;20093;-62
2022/03/09 08:43:10;;;;;;;6.70;4.55;;;;;;;8.41;36.16;100604.31;5112011;28;20081;-63
2022/03/09 08:45:37;;;;;;;6.57;4.40;;;;;;;8.47;36.27;100596.25;5112244;28;20040;-62
2022/03/09 08:48:05;;;;;;;6.95;4.38;;;;;;;8.53;36.16;100602.22;5112313;28;20499;-62
2022/03/09 08:50:32;;;;;;;9.45;5.03;;;;;;;8.58;35.97;100600.28;5111988;28;20085;-62
2022/03/09 08:53:06;;;;;;;7.15;4.25;;;;;;;8.64;35.58;100599.22;5090742;28;20516;-61
2022/03/09 08:55:33;;;;;;;7.00;4.25;;;;;;;8.68;35.72;100599.03;5091761;28;20054;-62
2022/03/09 08:58:00;;;;;;;6.88;4.10;;;;;;;8.75;35.47;100593.59;5091830;28;20048;-63
2022/03/09 09:00:28;;;;;;;5.82;3.85;;;;;;;8.82;35.38;100595.09;5091446;28;20393;-62
2022/03/09 09:02:55;;;;;;;5.85;4.40;;;;;;;8.89;35.70;100595.72;5092118;28;20400;-64
2022/03/09 09:05:24;;;;;;;5.72;3.63;;;;;;;8.95;35.27;100585.84;5100222;28;20131;-61
2022/03/09 09:07:51;;;;;;;6.03;3.92;;;;;;;9.03;35.15;100592.56;5112194;28;20060;-64
2022/03/09 09:10:17;;;;;;;7.75;3.63;;;;;;;9.10;35.09;100596.69;5111706;28;20048;-61
2022/03/09 09:12:46;;;;;;;4.05;3.17;;;;;;;9.18;34.90;100591.13;5111815;27;20532;-63
2022/03/09 09:15:13;;;;;;;5.03;3.55;;;;;;;9.26;34.58;100596.94;5111718;28;20074;-61
2022/03/09 09:17:40;;;;;;;5.93;3.50;;;;;;;9.32;34.86;100590.63;5111874;27;20047;-61
2022/03/09 09:20:16;;;;;;;5.25;3.50;;;;;;;9.41;34.33;100585.00;5111045;28;20545;-62
2022/03/09 09:22:44;;;;;;;4.53;3.25;;;;;;;9.50;34.36;100587.25;5111098;28;20128;-61
2022/03/09 09:25:31;;;;;;;5.15;3.47;;;;;;;9.60;34.04;100586.91;5111457;28;20138;-62
2022/03/09 09:27:58;;;;;;;7.10;3.50;;;;;;;9.68;34.15;100578.72;5110104;28;20553;-63
2022/03/09 09:30:35;;;;;;;7.72;3.55;;;;;;;9.75;33.98;100586.31;5110117;28;20476;-62
2022/03/09 09:33:02;;;;;;;7.25;3.83;;;;;;;9.85;34.37;100593.81;5111779;28;20048;-63
2022/03/09 09:35:29;;;;;;;7.40;3.75;;;;;;;9.92;34.04;100592.66;5111482;28;20051;-62
2022/03/09 09:38:07;;;;;;;7.05;3.60;;;;;;;10.00;33.82;100594.97;5110560;28;20075;-62
2022/03/09 09:40:43;;;;;;;5.53;3.83;;;;;;;10.06;33.71;100596.50;5110955;28;20143;-62
2022/03/09 09:43:12;;;;;;;5.95;3.60;;;;;;;10.16;33.80;100603.06;5109623;28;20067;-63
2022/03/09 09:45:41;;;;;;;7.75;4.28;;;;;;;10.23;33.74;100599.28;5111272;28;20135;-62
2022/03/09 09:48:08;;;;;;;7.55;4.32;;;;;;;10.33;33.54;100604.13;5110628;28;20082;-63
2022/03/09 09:50:37;;;;;;;6.35;3.90;;;;;;;10.39;33.50;100590.75;5109704;28;20400;-65
2022/03/09 09:53:05;;;;;;;6.60;4.28;;;;;;;10.46;33.25;100584.31;5110165;28;20086;-62
2022/03/09 09:55:32;;;;;;;5.93;4.07;;;;;;;10.53;33.19;100588.38;5110907;28;20043;-61
2022/03/09 09:57:59;;;;;;;6.82;4.60;;;;;;;10.62;33.15;100592.38;5109992;28;20090;-62
2022/03/09 10:00:26;;;;;;;8.07;4.78;;;;;;;10.70;33.12;100584.16;5109732;28;20043;-61
2022/03/09 10:03:00;;;;;;;7.07;4.47;;;;;;;10.78;33.42;100584.69;5110717;28;20047;-61
2022/03/09 10:05:27;;;;;;;6.78;4.40;;;;;;;10.88;33.22;100586.91;5111543;28;20152;-62
2022/03/09 10:08:03;;;;;;;8.07;4.75;;;;;;;10.94;32.46;100591.88;5111218;28;20598;-61
2022/03/09 10:10:36;;;;;;;6.97;4.68;;;;;;;11.05;32.86;100594.03;5110942;28;20048;-62
2022/03/09 10:13:38;;;;;;;7.15;4.32;;;;;;;11.13;32.54;100585.75;5109686;28;20554;-63
2022/03/09 10:16:15;;;;;;;9.68;4.13;;;;;;;11.24;32.25;100580.88;5067027;28;20864;-62
2022/03/09 10:18:48;;;;;;;6.43;4.38;;;;;;;11.34;32.56;100573.38;5109377;28;20399;-62
2022/03/09 10:21:18;;;;;;;5.10;3.90;;;;;;;11.45;32.50;100576.34;5110627;28;20407;-63
2022/03/09 10:23:51;;;;;;;8.60;4.60;;;;;;;11.56;32.60;100575.00;5109483;28;20047;-62
2022/03/09 10:26:18;;;;;;;7.22;4.07;;;;;;;11.69;32.91;100577.88;5111217;28;20453;-61
2022/03/09 10:28:56;;;;;;;8.02;4.20;;;;;;;11.79;32.73;100580.94;5105143;28;20062;-62
2022/03/09 10:31:48;;;;;;;5.65;4.38;;;;;;;11.92;32.54;100575.94;5108612;28;20047;-63
2022/03/09 10:34:24;;;;;;;8.43;4.72;;;;;;;12.08;31.74;100583.97;5092907;28;20134;-62
2022/03/09 10:36:59;;;;;;;7.47;4.13;;;;;;;12.20;31.48;100572.78;5110717;28;20122;-63
2022/03/09 10:39:30;;;;;;;5.63;4.57;;;;;;;12.33;31.96;100580.06;5108877;28;20174;-60
2022/03/09 10:42:02;;;;;;;5.95;4.30;;;;;;;12.47;31.91;100587.28;5109816;28;20055;-60
2022/03/09 10:44:45;;;;;;;6.03;4.43;;;;;;;12.56;31.93;100584.16;5110517;28;20408;-59
2022/03/09 10:47:28;;;;;;;10.27;4.60;;;;;;;12.69;32.34;100579.09;5110802;28;20502;-60
2022/03/09 10:50:16;;;;;;;5.85;4.57;;;;;;;12.85;32.10;100578.28;5108563;28;20055;-62
2022/03/09 10:52:55;;;;;;;6.75;4.10;;;;;;;12.99;30.02;100580.19;5089920;28;20097;-61
2022/03/09 10:55:25;;;;;;;6.53;4.80;;;;;;;13.11;30.94;100576.00;5094004;28;20407;-61
2022/03/09 10:58:22;;;;;;;4.82;4.15;;;;;;;13.19;30.82;100580.91;5110592;28;20044;-63
2022/03/09 11:00:55;;;;;;;5.53;4.57;;;;;;;13.27;29.65;100570.75;5100066;28;20050;-60
2022/03/09 11:03:26;;;;;;;6.40;4.30;;;;;;;13.34;30.53;100574.75;5108655;28;20100;-60
2022/03/09 11:05:59;;;;;;;6.57;4.40;;;;;;;13.37;29.76;100571.94;5110289;28;20122;-59
2022/03/09 11:08:31;;;;;;;7.20;4.68;;;;;;;13.42;30.38;100569.88;5110376;28;20044;-60
2022/03/09 11:10:58;;;;;;;7.97;4.90;;;;;;;13.48;30.34;100563.44;5109801;28;20563;-60
2022/03/09 11:13:26;;;;;;;11.75;4.50;;;;;;;13.54;30.90;100564.88;5110078;28;20105;-60
2022/03/09 11:15:54;;;;;;;8.32;4.85;;;;;;;13.62;31.11;100561.81;5108864;28;20188;-61
2022/03/09 11:18:25;;;;;;;7.45;4.97;;;;;;;13.72;31.44;100562.13;5110393;28;20051;-61
2022/03/09 11:20:55;;;;;;;5.68;4.63;;;;;;;13.87;31.11;100557.75;5109646;28;20104;-59
2022/03/09 11:23:23;;;;;;;6.70;4.68;;;;;;;14.04;31.28;100551.47;5110103;28;20039;-60
2022/03/09 11:25:53;;;;;;;9.32;5.35;;;;;;;14.25;30.31;100552.00;5109126;28;20073;-59
2022/03/09 11:28:30;;;;;;;7.95;5.35;;;;;;;14.51;31.25;100559.31;5108369;28;20047;-60
2022/03/09 11:31:04;;;;;;;9.00;4.63;;;;;;;14.88;30.87;100551.75;5112983;28;20076;-60
2022/03/09 11:33:46;;;;;;;7.78;4.75;;;;;;;15.37;31.01;100554.91;5113900;28;20044;-60
2022/03/09 11:36:35;;;;;;;7.63;4.32;;;;;;;16.11;30.66;100545.72;5113769;28;20048;-60
2022/03/09 11:39:05;;;;;;;6.60;4.93;;;;;;;16.90;30.50;100548.22;5105599;28;20086;-59